Latest Weather Observations for Bellambi

IDN60801

Issued at 8:35 pm EDT Thursday 23 October 2014 (issued every 30 minutes, with the page automatically refreshed every 10 minutes)

About weather observations | Map of weather stations | Latest weather observations for NSW | Other Formats
Station Details ID: 068228 Name: BELLAMBI AWS Lat: -34.37 Lon: 150.93 Height: 10.0 m
Data from the previous 72 hours. | See also: Recent months at Bellambi
Date/Time
EDT
Temp
°C
App
Temp
°C
Dew
Point
Rel
Hum
%
Delta-T
°C
Wind Press
QNH
hPa
Press
MSL
hPa
Rain
since 9 am
mm
Dir
 
Spd
km/h
Gust
km/h
Spd
kts
Gust
kts
23/08:30pm 18.9 21.1 16.5 86 1.4 SE 0 0 0 0 - - 0.0
23/08:00pm 19.0 20.9 16.6 86 1.4 SE 2 7 1 4 - - 0.0
23/07:30pm 19.3 21.1 16.5 84 1.7 SE 2 7 1 4 - - 0.0
23/07:00pm 19.9 22.2 16.7 82 1.9 CALM 0 0 0 0 - - 0.0
23/06:30pm 20.2 22.5 16.8 81 2.1 CALM 0 0 0 0 - - 0.0
23/06:00pm 20.5 22.7 16.5 78 2.4 CALM 0 0 0 0 - - 0.0
23/05:30pm 20.6 22.5 16.6 78 2.4 ESE 2 6 1 3 - - 0.0
23/05:00pm 21.1 22.7 16.9 77 2.6 ESE 4 6 2 3 - - 0.0
23/04:30pm 21.2 22.3 16.6 75 2.8 ESE 6 6 3 3 - - 0.0
23/04:00pm 21.6 22.4 17.4 77 2.6 ESE 9 11 5 6 - - 0.0
23/03:30pm 22.0 22.6 16.7 72 3.2 SSE 9 11 5 6 - - 0.0
23/03:00pm 22.8 23.5 16.1 66 4.1 S 7 9 4 5 - - 0.0
23/02:30pm 22.1 24.0 16.8 72 3.2 SSE 2 9 1 5 - - 0.0
23/02:00pm 21.6 23.1 18.0 80 2.2 SSE 7 9 4 5 - - 0.0
23/01:30pm 20.7 21.7 16.9 79 2.3 ESE 7 9 4 5 - - 0.0
23/01:00pm 21.2 22.4 17.4 79 2.3 SSE 7 9 4 5 - - 0.0
23/12:30pm 20.9 21.7 17.3 80 2.2 S 9 13 5 7 - - 0.0
23/12:00pm 20.6 20.5 17.0 80 2.2 SSE 13 17 7 9 - - 0.0
23/11:30am 20.1 20.1 16.3 79 2.3 SSE 11 15 6 8 - - 0.0
23/11:00am 20.3 20.4 16.5 79 2.3 SE 11 11 6 6 - - 0.0
23/10:30am 20.7 22.1 15.3 71 3.2 E 2 6 1 3 - - 0.0
23/10:00am 20.5 21.6 15.5 73 3.0 S 4 9 2 5 - - 0.0
23/09:30am 19.9 20.4 15.5 76 2.6 SSW 7 9 4 5 - - 0.0
23/09:00am 18.8 19.6 14.9 78 2.3 S 4 7 2 4 - - 0.0
23/08:30am 18.6 18.9 14.9 79 2.2 S 7 11 4 6 - - 0.0
23/08:00am 18.6 18.9 14.5 77 2.4 S 6 7 3 4 - - 0.0
23/07:30am 18.8 20.4 14.9 78 2.3 CALM 0 0 0 0 - - 0.0
23/07:00am 16.9 16.7 13.6 81 1.9 SW 7 9 4 5 - - 0.0
23/06:30am 16.8 17.9 13.5 81 1.9 CALM 0 4 0 2 - - 0.0
23/06:00am 17.3 16.9 14.0 81 1.9 N 9 11 5 6 - - 0.0
23/05:30am 17.1 16.0 13.2 78 2.2 NNE 11 13 6 7 - - 0.0
23/05:00am 16.7 16.4 13.2 80 2.0 NNE 7 9 4 5 - - 0.0
23/04:30am 16.8 16.3 12.7 77 2.3 N 7 11 4 6 - - 0.0
23/04:00am 16.9 15.3 12.8 77 2.3 NNE 13 17 7 9 - - 0.0
23/03:30am 16.6 16.1 12.6 77 2.2 NW 7 11 4 6 - - 0.0
23/03:00am 16.5 16.1 12.5 77 2.2 WNW 6 9 3 5 - - 0.0
23/02:30am 16.3 16.4 12.7 79 2.0 NNW 4 7 2 4 - - 0.0
23/02:00am 15.6 15.9 12.2 80 1.9 NNW 2 9 1 5 - - 0.0
23/01:30am 15.2 14.5 12.0 81 1.7 NNW 7 11 4 6 - - 0.0
23/01:00am 15.1 14.4 11.5 79 1.9 WNW 6 11 3 6 - - 0.0
23/12:30am 15.6 14.5 12.0 79 2.0 NW 9 13 5 7 - - 0.0
23/12:00am 16.4 15.8 12.2 76 2.3 NW 7 11 4 6 - - 0.0
 
Date/Time
EDT
Temp
°C
App
Temp
°C
Dew
Point
Rel
Hum
%
Delta-T
°C
Wind Press
QNH
hPa
Press
MSL
hPa
Rain
since 9 am
mm
Dir
 
Spd
km/h
Gust
km/h
Spd
kts
Gust
kts
22/11:30pm 17.5 15.7 13.4 77 2.3 N 15 19 8 10 - - 0.0
22/11:00pm 17.0 15.9 13.1 78 2.2 N 11 13 6 7 - - 0.0
22/10:30pm 16.6 16.1 12.6 77 2.2 NW 7 9 4 5 - - 0.0
22/10:00pm 17.0 16.3 13.1 78 2.2 NNW 9 13 5 7 - - 0.0
22/09:30pm 16.9 16.1 12.8 77 2.3 NW 9 11 5 6 - - 0.0
22/09:00pm 17.9 16.3 14.0 78 2.2 N 15 19 8 10 - - 0.0
22/08:30pm 17.9 15.5 13.8 77 2.3 NNE 19 24 10 13 - - 0.0
22/08:00pm 17.9 14.7 14.2 79 2.1 NNE 24 30 13 16 - - 0.0
22/07:30pm 18.0 13.6 14.1 78 2.2 NNE 30 35 16 19 - - 0.0
22/07:00pm 18.1 12.8 14.2 78 2.2 NNE 35 41 19 22 - - 0.0
22/06:30pm 18.2 12.0 13.7 75 2.6 NE 39 46 21 25 - - 0.0
22/06:00pm 18.4 11.8 13.7 74 2.7 NE 41 48 22 26 - - 0.0
22/05:30pm 18.6 11.9 13.5 72 2.9 NE 41 50 22 27 - - 0.0
22/05:00pm 18.8 12.1 13.4 71 3.1 NE 41 48 22 26 - - 0.0
22/04:30pm 19.0 11.9 13.4 70 3.2 NE 43 50 23 27 - - 0.0
22/04:00pm 18.9 11.4 12.6 67 3.5 NE 44 52 24 28 - - 0.0
22/03:30pm 19.1 12.0 13.3 69 3.3 NE 43 52 23 28 - - 0.0
22/03:00pm 19.1 11.7 13.1 68 3.4 NE 44 52 24 28 - - 0.0
22/02:30pm 19.1 12.0 13.3 69 3.3 NE 43 50 23 27 - - 0.0
22/02:00pm 19.3 12.6 13.5 69 3.3 NE 41 48 22 26 - - 0.0
22/01:30pm 19.2 12.1 13.4 69 3.3 NE 43 50 23 27 - - 0.0
22/01:00pm 19.4 13.3 13.1 67 3.6 NE 37 43 20 23 - - 0.0
22/12:30pm 19.8 15.1 12.1 61 4.3 NE 28 37 15 20 - - 0.0
22/12:00pm 19.9 15.3 10.9 56 4.9 NNE 26 32 14 17 - - 0.0
22/11:30am 19.9 15.6 10.6 55 5.0 NNE 24 30 13 16 - - 0.0
22/11:00am 19.1 14.3 10.4 57 4.7 N 26 37 14 20 - - 0.0
22/10:30am 18.8 14.9 9.6 55 4.9 N 20 30 11 16 - - 0.0
22/10:00am 18.2 13.7 8.7 54 4.9 N 22 30 12 16 - - 0.0
22/09:30am 17.6 12.2 8.2 54 4.8 N 26 35 14 19 - - 0.0
22/09:00am 17.2 13.1 8.6 57 4.4 N 20 28 11 15 - - 0.0
22/08:30am 16.6 11.8 7.3 54 4.6 N 22 30 12 16 - - 0.0
22/08:00am 15.9 11.0 8.6 62 3.7 NNW 24 32 13 17 - - 0.0
22/07:30am 15.7 10.5 8.9 64 3.5 NNW 26 32 14 17 - - 0.0
22/07:00am 15.2 11.5 9.3 68 3.0 NNW 19 22 10 12 - - 0.0
22/06:30am 15.1 12.0 8.8 66 3.2 N 15 19 8 10 - - 0.0
22/06:00am 15.0 11.0 8.9 67 3.1 NNW 20 26 11 14 - - 0.0
22/05:30am 14.6 11.6 9.4 71 2.7 NNW 15 20 8 11 - - 0.0
22/05:00am 15.0 12.1 9.6 70 2.8 N 15 19 8 10 - - 0.0
22/04:30am 15.4 12.2 10.0 70 2.8 N 17 20 9 11 - - 0.0
22/04:00am 14.9 11.6 9.7 71 2.7 N 17 19 9 10 - - 0.0
22/03:30am 15.4 12.5 9.5 68 3.0 N 15 19 8 10 - - 0.0
22/03:00am 15.0 13.3 9.8 71 2.7 NNW 9 15 5 8 - - 0.0
22/02:30am 15.5 12.3 10.1 70 2.8 N 17 22 9 12 - - 0.0
22/02:00am 15.5 11.8 10.1 70 2.8 NNE 20 24 11 13 - - 0.0
22/01:30am 15.2 12.6 9.3 68 3.0 NNW 13 17 7 9 - - 0.0
22/01:00am 16.0 11.8 9.9 67 3.2 NNE 22 30 12 16 - - 0.0
22/12:30am 15.5 12.9 9.2 66 3.2 NNW 13 15 7 8 - - 0.0
22/12:00am 15.6 13.2 9.9 69 3.0 NNW 13 20 7 11 - - 0.0
 
Date/Time
EDT
Temp
°C
App
Temp
°C
Dew
Point
Rel
Hum
%
Delta-T
°C
Wind Press
QNH
hPa
Press
MSL
hPa
Rain
since 9 am
mm
Dir
 
Spd
km/h
Gust
km/h
Spd
kts
Gust
kts
21/11:30pm 15.6 12.7 9.7 68 3.1 N 15 24 8 13 - - 0.0
21/11:00pm 15.6 11.3 9.5 67 3.2 N 22 28 12 15 - - 0.0
21/10:30pm 16.0 10.8 10.3 69 3.0 NNE 28 33 15 18 - - 0.0
21/10:00pm 16.3 11.5 10.2 67 3.2 NE 26 32 14 17 - - 0.0
21/09:30pm 16.3 12.9 10.6 69 3.0 N 19 26 10 14 - - 0.0
21/09:00pm 16.3 13.6 10.4 68 3.1 N 15 19 8 10 - - 0.0
21/08:30pm 16.3 12.2 10.2 67 3.2 NE 22 28 12 15 - - 0.0
21/08:00pm 16.4 12.8 10.5 68 3.1 NE 20 26 11 14 - - 0.0
21/07:30pm 16.5 13.1 9.0 61 3.9 NE 17 22 9 12 - - 0.0
21/07:00pm 16.5 13.0 8.7 60 4.0 NE 17 19 9 10 - - 0.0
21/06:30pm 16.5 13.1 9.2 62 3.8 NE 17 20 9 11 - - 0.0
21/06:00pm 16.6 13.1 8.8 60 4.0 ENE 17 20 9 11 - - 0.0
21/05:30pm 16.7 13.6 8.9 60 4.0 NE 15 19 8 10 - - 0.0
21/05:00pm 16.9 14.1 8.6 58 4.3 ENE 13 15 7 8 - - 0.0
21/04:30pm 17.2 14.3 8.1 55 4.6 ENE 13 17 7 9 - - 0.0
21/04:00pm 17.5 14.6 8.1 54 4.8 ENE 13 19 7 10 - - 0.0
21/03:30pm 17.7 15.0 8.8 56 4.6 NE 13 15 7 8 - - 0.0
21/03:00pm 17.4 14.5 8.3 55 4.7 NE 13 17 7 9 - - 0.0
21/02:30pm 17.3 14.5 8.4 56 4.6 ENE 13 15 7 8 - - 0.0
21/02:00pm 17.4 14.3 8.8 57 4.4 ENE 15 17 8 9 - - 0.0
21/01:30pm 17.2 14.9 8.9 58 4.3 ENE 11 17 6 9 - - 0.0
21/01:00pm 16.9 15.1 9.6 62 3.8 NE 9 15 5 8 - - 0.0
21/12:30pm 16.9 14.8 9.6 62 3.8 ENE 11 15 6 8 - - 0.0
21/12:00pm 16.5 13.2 9.4 63 3.7 E 17 20 9 11 - - 0.0
21/11:30am 16.7 15.4 10.1 65 3.5 E 7 15 4 8 - - 0.0
21/11:00am 16.8 16.9 10.0 64 3.6 CALM 0 4 0 2 - - 0.0
21/10:30am 16.2 16.0 10.3 68 3.1 NE 2 7 1 4 - - 0.0
21/10:00am 15.5 14.2 10.1 70 2.8 E 7 17 4 9 - - 0.0
21/09:30am 15.2 15.0 10.6 74 2.4 S 2 9 1 5 - - 0.0
21/09:00am 14.8 14.0 11.2 79 1.9 W 6 7 3 4 - - 3.4
21/08:30am 14.5 13.3 11.5 82 1.6 W 9 11 5 6 - - 3.4
21/08:00am 14.0 14.0 11.2 83 1.5 W 2 7 1 4 - - 3.4
21/07:30am 13.7 12.3 10.9 83 1.5 WSW 9 13 5 7 - - 3.4
21/07:00am 13.4 12.0 10.8 84 1.4 W 9 11 5 6 - - 3.4
21/06:30am 13.2 11.0 10.7 85 1.3 WSW 13 15 7 8 - - 3.4
21/06:00am 13.1 10.5 10.6 85 1.3 SW 15 19 8 10 - - 3.4
21/05:30am 13.1 11.3 10.8 86 1.2 WSW 11 13 6 7 - - 3.4
21/05:00am 13.1 11.3 11.0 87 1.1 WSW 11 15 6 8 - - 3.4
21/04:30am 13.1 11.0 11.2 88 1.0 SW 13 19 7 10 - - 3.2
21/04:00am 13.1 11.4 11.3 89 1.0 SW 11 15 6 8 - - 3.2
21/03:30am 13.0 11.0 11.4 90 0.8 WSW 13 17 7 9 - - 3.2
21/03:00am 13.0 10.6 11.4 90 0.8 WSW 15 22 8 12 - - 3.2
21/02:50am 13.0 11.0 11.4 90 0.8 SW 13 19 7 10 - - 3.2
21/02:30am 13.1 12.2 11.5 90 0.8 W 7 13 4 7 - - 3.2
21/02:00am 13.4 12.2 11.5 88 1.0 WSW 9 15 5 8 - - 1.6
21/01:31am 13.7 10.9 11.2 85 1.3 SW 17 24 9 13 - - 0.4
21/01:30am 13.7 10.9 11.2 85 1.3 SW 17 24 9 13 - - 0.4
21/01:00am 14.8 11.3 11.0 78 2.0 S 20 24 11 13 - - 0.4
21/12:30am 15.3 11.2 11.3 77 2.1 SSE 24 28 13 15 - - 0.4
21/12:00am 15.6 11.2 11.6 77 2.2 SSE 26 32 14 17 - - 0.4
 
Date/Time
EDT
Temp
°C
App
Temp
°C
Dew
Point
Rel
Hum
%
Delta-T
°C
Wind Press
QNH
hPa
Press
MSL
hPa
Rain
since 9 am
mm
Dir
 
Spd
km/h
Gust
km/h
Spd
kts
Gust
kts
20/11:30pm 16.0 12.3 11.4 74 2.5 SSE 22 30 12 16 - - 0.4
20/11:00pm 16.1 12.8 11.5 74 2.5 SSE 20 24 11 13 - - 0.4
20/10:30pm 15.9 11.2 11.9 77 2.2 SSE 28 32 15 17 - - 0.4
20/10:00pm 14.3 12.7 11.5 83 1.5 W 11 15 6 8 - - 0.2
20/09:30pm 14.4 12.4 11.6 83 1.5 W 13 17 7 9 - - 0.0
20/09:00pm 15.2 14.3 11.4 78 2.0 SSW 7 13 4 7 - - 0.0

Other Formats:

Comma delimited format used in spreadsheet applications
http://www.bom.gov.au/fwo/IDN60801/IDN60801.94749.axf

JavaScript Object Notation format (JSON) in row-major order
http://www.bom.gov.au/fwo/IDN60801/IDN60801.94749.json